sensor_id;sensor_type;location;lat;lon;timestamp;pressure;altitude;pressure_sealevel;temperature;humidity
63399;BME280;49533;-34.520;150.798;2023-05-24T00:01:59;101532.13;;;17.48;41.73
63399;BME280;49533;-34.520;150.798;2023-05-24T00:04:28;101516.00;;;17.46;41.09
63399;BME280;49533;-34.520;150.798;2023-05-24T00:06:55;101512.22;;;17.51;41.18
63399;BME280;49533;-34.520;150.798;2023-05-24T00:09:23;101571.31;;;17.83;40.78
63399;BME280;49533;-34.520;150.798;2023-05-24T00:11:50;101552.19;;;17.87;40.91
63399;BME280;49533;-34.520;150.798;2023-05-24T00:14:19;101536.84;;;17.86;40.87
63399;BME280;49533;-34.520;150.798;2023-05-24T00:16:46;101536.66;;;17.91;41.08
63399;BME280;49533;-34.520;150.798;2023-05-24T00:19:13;101532.56;;;17.97;40.86
63399;BME280;49533;-34.520;150.798;2023-05-24T00:21:48;101455.38;;;17.51;40.63
63399;BME280;49533;-34.520;150.798;2023-05-24T00:24:15;101505.94;;;17.89;40.46
63399;BME280;49533;-34.520;150.798;2023-05-24T00:26:43;101497.06;;;17.83;40.41
63399;BME280;49533;-34.520;150.798;2023-05-24T00:29:11;101491.72;;;17.87;40.47
63399;BME280;49533;-34.520;150.798;2023-05-24T00:31:38;101509.72;;;18.05;40.08
63399;BME280;49533;-34.520;150.798;2023-05-24T00:34:05;101530.31;;;18.20;39.99
63399;BME280;49533;-34.520;150.798;2023-05-24T00:36:33;101539.91;;;18.35;39.98
63399;BME280;49533;-34.520;150.798;2023-05-24T00:39:00;101523.13;;;18.28;39.86
63399;BME280;49533;-34.520;150.798;2023-05-24T00:41:27;101474.63;;;18.02;39.84
63399;BME280;49533;-34.520;150.798;2023-05-24T00:43:54;101524.97;;;18.44;39.32
63399;BME280;49533;-34.520;150.798;2023-05-24T00:46:27;101529.47;;;18.49;39.44
63399;BME280;49533;-34.520;150.798;2023-05-24T00:48:55;101513.63;;;18.46;39.38
63399;BME280;49533;-34.520;150.798;2023-05-24T00:51:23;101514.34;;;18.55;39.31
63399;BME280;49533;-34.520;150.798;2023-05-24T00:53:52;101454.56;;;18.22;39.32
63399;BME280;49533;-34.520;150.798;2023-05-24T00:56:20;101460.56;;;18.24;39.20
63399;BME280;49533;-34.520;150.798;2023-05-24T00:58:47;101504.75;;;18.61;38.54
63399;BME280;49533;-34.520;150.798;2023-05-24T01:01:16;101500.16;;;18.65;39.12
63399;BME280;49533;-34.520;150.798;2023-05-24T01:03:43;101497.88;;;18.67;39.29
63399;BME280;49533;-34.520;150.798;2023-05-24T01:06:12;101457.56;;;18.51;38.90
63399;BME280;49533;-34.520;150.798;2023-05-24T01:08:59;101438.41;;;18.42;38.66
63399;BME280;49533;-34.520;150.798;2023-05-24T01:11:38;101447.03;;;18.53;39.01
63399;BME280;49533;-34.520;150.798;2023-05-24T01:14:23;101454.19;;;18.66;39.22
63399;BME280;49533;-34.520;150.798;2023-05-24T01:17:03;101434.22;;;18.57;38.89
63399;BME280;49533;-34.520;150.798;2023-05-24T01:19:50;101469.22;;;18.89;39.13
63399;BME280;49533;-34.520;150.798;2023-05-24T01:25:36;101465.41;;;18.94;38.39
63399;BME280;49533;-34.520;150.798;2023-05-24T01:28:08;101381.41;;;18.42;38.67
63399;BME280;49533;-34.520;150.798;2023-05-24T01:30:39;101442.00;;;18.88;38.26
63399;BME280;49533;-34.520;150.798;2023-05-24T01:33:07;101412.81;;;18.75;37.67
63399;BME280;49533;-34.520;150.798;2023-05-24T01:35:35;101428.47;;;18.95;36.52
63399;BME280;49533;-34.520;150.798;2023-05-24T01:38:07;101448.47;;;19.17;36.54
63399;BME280;49533;-34.520;150.798;2023-05-24T01:40:36;101412.44;;;18.97;36.52
63399;BME280;49533;-34.520;150.798;2023-05-24T01:43:13;101416.78;;;19.10;36.28
63399;BME280;49533;-34.520;150.798;2023-05-24T01:49:10;101433.44;;;19.39;35.47
63399;BME280;49533;-34.520;150.798;2023-05-24T01:51:58;101431.03;;;19.37;35.16
63399;BME280;49533;-34.520;150.798;2023-05-24T01:54:29;101421.84;;;19.45;35.24
63399;BME280;49533;-34.520;150.798;2023-05-24T01:56:58;101398.66;;;19.34;35.58
63399;BME280;49533;-34.520;150.798;2023-05-24T01:59:28;101393.25;;;19.38;34.49
63399;BME280;49533;-34.520;150.798;2023-05-24T02:01:56;101386.69;;;19.30;34.38
63399;BME280;49533;-34.520;150.798;2023-05-24T02:04:23;101378.00;;;19.28;34.48
63399;BME280;49533;-34.520;150.798;2023-05-24T02:06:51;101399.34;;;19.43;35.08
63399;BME280;49533;-34.520;150.798;2023-05-24T02:09:18;101379.47;;;19.38;35.25
63399;BME280;49533;-34.520;150.798;2023-05-24T02:11:45;101353.53;;;19.26;35.50
63399;BME280;49533;-34.520;150.798;2023-05-24T02:14:12;101369.03;;;19.43;35.94
63399;BME280;49533;-34.520;150.798;2023-05-24T02:16:39;101394.63;;;19.56;36.17
63399;BME280;49533;-34.520;150.798;2023-05-24T02:19:08;101369.03;;;19.43;36.80
63399;BME280;49533;-34.520;150.798;2023-05-24T02:21:35;101382.78;;;19.55;37.27
63399;BME280;49533;-34.520;150.798;2023-05-24T02:24:05;101389.91;;;19.57;37.63
63399;BME280;49533;-34.520;150.798;2023-05-24T02:26:33;101358.91;;;19.47;37.98
63399;BME280;49533;-34.520;150.798;2023-05-24T02:29:00;101371.06;;;19.59;37.98
63399;BME280;49533;-34.520;150.798;2023-05-24T02:31:28;101364.41;;;19.60;38.26
63399;BME280;49533;-34.520;150.798;2023-05-24T02:33:55;101342.03;;;19.49;38.31
63399;BME280;49533;-34.520;150.798;2023-05-24T02:36:23;101290.75;;;19.20;38.58
63399;BME280;49533;-34.520;150.798;2023-05-24T02:38:51;101353.84;;;19.62;38.73
63399;BME280;49533;-34.520;150.798;2023-05-24T02:41:18;101362.09;;;19.62;39.02
63399;BME280;49533;-34.520;150.798;2023-05-24T02:43:46;101350.28;;;19.61;39.10
63399;BME280;49533;-34.520;150.798;2023-05-24T02:46:14;101342.81;;;19.62;38.96
63399;BME280;49533;-34.520;150.798;2023-05-24T02:48:42;101342.81;;;19.62;39.03
63399;BME280;49533;-34.520;150.798;2023-05-24T02:51:09;101340.06;;;19.62;39.04
63399;BME280;49533;-34.520;150.798;2023-05-24T02:53:36;101234.94;;;18.95;38.66
63399;BME280;49533;-34.520;150.798;2023-05-24T02:56:03;101304.88;;;19.30;38.64
63399;BME280;49533;-34.520;150.798;2023-05-24T02:58:30;101347.16;;;19.63;38.79
63399;BME280;49533;-34.520;150.798;2023-05-24T03:00:57;101338.88;;;19.63;38.89
63399;BME280;49533;-34.520;150.798;2023-05-24T03:03:24;101338.19;;;19.66;38.86
63399;BME280;49533;-34.520;150.798;2023-05-24T03:05:51;101276.31;;;19.23;38.87
63399;BME280;49533;-34.520;150.798;2023-05-24T03:08:18;101336.13;;;19.63;38.83
63399;BME280;49533;-34.520;150.798;2023-05-24T03:10:46;101316.63;;;19.55;38.92
63399;BME280;49533;-34.520;150.798;2023-05-24T03:13:13;101329.81;;;19.62;38.98
63399;BME280;49533;-34.520;150.798;2023-05-24T03:15:40;101278.44;;;19.29;39.32
63399;BME280;49533;-34.520;150.798;2023-05-24T03:18:08;101328.56;;;19.60;39.49
63399;BME280;49533;-34.520;150.798;2023-05-24T03:20:35;101317.31;;;19.52;39.46
63399;BME280;49533;-34.520;150.798;2023-05-24T03:23:02;101279.25;;;19.30;39.37
63399;BME280;49533;-34.520;150.798;2023-05-24T03:25:29;101324.66;;;19.61;39.24
63399;BME280;49533;-34.520;150.798;2023-05-24T03:27:56;101302.66;;;19.48;39.42
63399;BME280;49533;-34.520;150.798;2023-05-24T03:30:24;101320.28;;;19.60;39.35
63399;BME280;49533;-34.520;150.798;2023-05-24T03:32:51;101299.06;;;19.48;39.37
63399;BME280;49533;-34.520;150.798;2023-05-24T03:35:18;101285.44;;;19.39;39.50
63399;BME280;49533;-34.520;150.798;2023-05-24T03:37:45;101294.25;;;19.45;39.71
63399;BME280;49533;-34.520;150.798;2023-05-24T03:40:13;101247.75;;;19.15;39.75
63399;BME280;49533;-34.520;150.798;2023-05-24T03:42:40;101301.34;;;19.58;39.86
63399;BME280;49533;-34.520;150.798;2023-05-24T03:45:07;101300.19;;;19.59;40.23
63399;BME280;49533;-34.520;150.798;2023-05-24T03:47:35;101303.28;;;19.58;40.33
63399;BME280;49533;-34.520;150.798;2023-05-24T03:50:02;101277.63;;;19.41;40.49
63399;BME280;49533;-34.520;150.798;2023-05-24T03:52:30;101294.56;;;19.55;40.38
63399;BME280;49533;-34.520;150.798;2023-05-24T03:54:57;101263.63;;;19.34;40.50
63399;BME280;49533;-34.520;150.798;2023-05-24T03:57:24;101259.72;;;19.35;40.52
63399;BME280;49533;-34.520;150.798;2023-05-24T03:59:51;101291.25;;;19.50;40.56
63399;BME280;49533;-34.520;150.798;2023-05-24T04:02:18;101233.38;;;19.22;40.59
63399;BME280;49533;-34.520;150.798;2023-05-24T04:04:45;101175.06;;;18.79;40.40
63399;BME280;49533;-34.520;150.798;2023-05-24T04:07:12;101220.19;;;19.15;40.46
63399;BME280;49533;-34.520;150.798;2023-05-24T04:09:41;101232.91;;;19.20;40.39
63399;BME280;49533;-34.520;150.798;2023-05-24T04:12:08;101287.47;;;19.54;40.41
63399;BME280;49533;-34.520;150.798;2023-05-24T04:14:35;101255.38;;;19.34;40.30
63399;BME280;49533;-34.520;150.798;2023-05-24T04:17:02;101274.50;;;19.43;40.20
63399;BME280;49533;-34.520;150.798;2023-05-24T04:19:30;101252.16;;;19.32;40.28
63399;BME280;49533;-34.520;150.798;2023-05-24T04:21:58;101236.91;;;19.22;40.17
63399;BME280;49533;-34.520;150.798;2023-05-24T04:24:25;101280.44;;;19.57;40.00
63399;BME280;49533;-34.520;150.798;2023-05-24T04:26:52;101263.84;;;19.41;40.12
63399;BME280;49533;-34.520;150.798;2023-05-24T04:29:19;101247.34;;;19.29;40.00
63399;BME280;49533;-34.520;150.798;2023-05-24T04:31:46;101270.13;;;19.54;39.93
63399;BME280;49533;-34.520;150.798;2023-05-24T04:34:14;101199.06;;;19.19;40.23
63399;BME280;49533;-34.520;150.798;2023-05-24T04:36:41;101182.53;;;19.19;39.89
63399;BME280;49533;-34.520;150.798;2023-05-24T04:39:09;101272.66;;;19.87;39.91
63399;BME280;49533;-34.520;150.798;2023-05-24T04:41:36;101246.19;;;19.70;40.02
63399;BME280;49533;-34.520;150.798;2023-05-24T04:44:04;101257.72;;;19.88;40.25
63399;BME280;49533;-34.520;150.798;2023-05-24T04:46:31;101241.44;;;19.83;40.46
63399;BME280;49533;-34.520;150.798;2023-05-24T04:49:04;101258.31;;;20.10;40.36
63399;BME280;49533;-34.520;150.798;2023-05-24T04:51:34;101231.03;;;19.92;40.13
63399;BME280;49533;-34.520;150.798;2023-05-24T04:54:04;101250.38;;;20.08;40.52
63399;BME280;49533;-34.520;150.798;2023-05-24T04:56:34;101260.63;;;20.24;40.49
63399;BME280;49533;-34.520;150.798;2023-05-24T04:59:05;101227.41;;;20.04;40.38
63399;BME280;49533;-34.520;150.798;2023-05-24T05:01:33;101260.44;;;20.32;40.70
63399;BME280;49533;-34.520;150.798;2023-05-24T05:04:01;101258.13;;;20.34;40.75
63399;BME280;49533;-34.520;150.798;2023-05-24T05:06:30;101259.03;;;20.38;40.84
63399;BME280;49533;-34.520;150.798;2023-05-24T05:09:00;101245.38;;;20.30;40.88
63399;BME280;49533;-34.520;150.798;2023-05-24T05:11:27;101198.75;;;20.09;41.04
63399;BME280;49533;-34.520;150.798;2023-05-24T05:13:54;101258.38;;;20.45;40.93
63399;BME280;49533;-34.520;150.798;2023-05-24T05:16:21;101256.09;;;20.47;41.17
63399;BME280;49533;-34.520;150.798;2023-05-24T05:18:48;101232.84;;;20.32;40.97
63399;BME280;49533;-34.520;150.798;2023-05-24T05:21:15;101262.06;;;20.49;41.33
63399;BME280;49533;-34.520;150.798;2023-05-24T05:23:44;101224.03;;;20.27;40.93
63399;BME280;49533;-34.520;150.798;2023-05-24T05:26:12;101242.47;;;20.38;41.43
63399;BME280;49533;-34.520;150.798;2023-05-24T05:28:39;101260.09;;;20.50;41.40
63399;BME280;49533;-34.520;150.798;2023-05-24T05:31:06;101263.75;;;20.54;41.18
63399;BME280;49533;-34.520;150.798;2023-05-24T05:33:33;101215.16;;;20.33;41.28
63399;BME280;49533;-34.520;150.798;2023-05-24T05:36:00;101209.91;;;20.28;41.53
63399;BME280;49533;-34.520;150.798;2023-05-24T05:38:27;101214.41;;;20.36;41.51
63399;BME280;49533;-34.520;150.798;2023-05-24T05:40:54;101176.59;;;20.05;41.23
63399;BME280;49533;-34.520;150.798;2023-05-24T05:43:21;101261.19;;;20.61;41.33
63399;BME280;49533;-34.520;150.798;2023-05-24T05:45:50;101246.09;;;20.42;41.66
63399;BME280;49533;-34.520;150.798;2023-05-24T05:48:17;101237.13;;;20.46;41.68
63399;BME280;49533;-34.520;150.798;2023-05-24T05:50:44;101120.38;;;19.78;41.88
63399;BME280;49533;-34.520;150.798;2023-05-24T05:53:12;101249.59;;;20.55;41.58
63399;BME280;49533;-34.520;150.798;2023-05-24T05:55:39;101183.56;;;20.15;41.56
63399;BME280;49533;-34.520;150.798;2023-05-24T05:58:06;101218.09;;;20.40;41.55
63399;BME280;49533;-34.520;150.798;2023-05-24T06:00:33;101222.44;;;20.41;41.97
63399;BME280;49533;-34.520;150.798;2023-05-24T06:03:00;101226.00;;;20.42;41.87
63399;BME280;49533;-34.520;150.798;2023-05-24T06:05:28;101118.06;;;19.80;42.08
63399;BME280;49533;-34.520;150.798;2023-05-24T06:07:55;101249.44;;;20.64;42.01
63399;BME280;49533;-34.520;150.798;2023-05-24T06:10:22;101245.50;;;20.65;41.79
63399;BME280;49533;-34.520;150.798;2023-05-24T06:12:49;101219.75;;;20.45;41.92
63399;BME280;49533;-34.520;150.798;2023-05-24T06:15:16;101229.00;;;20.53;41.98
63399;BME280;49533;-34.520;150.798;2023-05-24T06:17:43;101266.44;;;20.66;41.66
63399;BME280;49533;-34.520;150.798;2023-05-24T06:22:41;101248.25;;;20.65;41.73
63399;BME280;49533;-34.520;150.798;2023-05-24T06:25:08;101258.16;;;20.66;41.83
63399;BME280;49533;-34.520;150.798;2023-05-24T06:27:35;101242.41;;;20.67;41.66
63399;BME280;49533;-34.520;150.798;2023-05-24T06:30:03;101216.13;;;20.41;41.80
63399;BME280;49533;-34.520;150.798;2023-05-24T06:32:30;101239.97;;;20.65;41.61
63399;BME280;49533;-34.520;150.798;2023-05-24T06:34:57;101250.22;;;20.65;41.58
63399;BME280;49533;-34.520;150.798;2023-05-24T06:37:24;101223.69;;;20.44;42.21
63399;BME280;49533;-34.520;150.798;2023-05-24T06:39:51;101209.81;;;20.40;41.70
63399;BME280;49533;-34.520;150.798;2023-05-24T06:42:18;101228.59;;;20.51;41.55
63399;BME280;49533;-34.520;150.798;2023-05-24T06:44:46;101147.78;;;20.03;41.74
63399;BME280;49533;-34.520;150.798;2023-05-24T06:47:13;101244.53;;;20.57;41.64
63399;BME280;49533;-34.520;150.798;2023-05-24T06:49:40;101218.34;;;20.35;41.64
63399;BME280;49533;-34.520;150.798;2023-05-24T06:52:07;101141.19;;;19.91;41.47
63399;BME280;49533;-34.520;150.798;2023-05-24T06:54:35;101210.16;;;20.39;41.41
63399;BME280;49533;-34.520;150.798;2023-05-24T06:57:02;101253.44;;;20.67;41.65
63399;BME280;49533;-34.520;150.798;2023-05-24T06:59:30;101259.75;;;20.67;41.38
63399;BME280;49533;-34.520;150.798;2023-05-24T07:01:57;101222.88;;;20.44;41.72
63399;BME280;49533;-34.520;150.798;2023-05-24T07:04:24;101252.66;;;20.66;41.76
63399;BME280;49533;-34.520;150.798;2023-05-24T07:06:52;101249.88;;;20.66;41.72
63399;BME280;49533;-34.520;150.798;2023-05-24T07:09:19;101234.91;;;20.51;41.67
63399;BME280;49533;-34.520;150.798;2023-05-24T07:11:46;101254.97;;;20.64;41.74
63399;BME280;49533;-34.520;150.798;2023-05-24T07:14:14;101191.13;;;20.18;41.60
63399;BME280;49533;-34.520;150.798;2023-05-24T07:16:41;101198.41;;;20.26;41.54
63399;BME280;49533;-34.520;150.798;2023-05-24T07:19:08;101254.84;;;20.60;41.72
63399;BME280;49533;-34.520;150.798;2023-05-24T07:21:35;101228.94;;;20.33;41.79
63399;BME280;49533;-34.520;150.798;2023-05-24T07:24:03;101226.63;;;20.35;41.48
63399;BME280;49533;-34.520;150.798;2023-05-24T07:26:30;101221.72;;;20.29;41.54
63399;BME280;49533;-34.520;150.798;2023-05-24T07:28:57;101238.28;;;20.29;41.37
63399;BME280;49533;-34.520;150.798;2023-05-24T07:31:24;101264.88;;;20.53;41.35
63399;BME280;49533;-34.520;150.798;2023-05-24T07:33:52;101252.00;;;20.41;41.61
63399;BME280;49533;-34.520;150.798;2023-05-24T07:36:19;101271.59;;;20.52;41.46
63399;BME280;49533;-34.520;150.798;2023-05-24T07:38:46;101266.84;;;20.52;41.54
63399;BME280;49533;-34.520;150.798;2023-05-24T07:41:14;101210.25;;;20.11;41.29
63399;BME280;49533;-34.520;150.798;2023-05-24T07:43:42;101192.63;;;20.00;41.13
63399;BME280;49533;-34.520;150.798;2023-05-24T07:46:09;101234.88;;;20.19;41.24
63399;BME280;49533;-34.520;150.798;2023-05-24T07:48:36;101274.94;;;20.45;41.15
63399;BME280;49533;-34.520;150.798;2023-05-24T07:51:03;101266.06;;;20.36;41.42
63399;BME280;49533;-34.520;150.798;2023-05-24T07:53:31;101250.13;;;20.29;41.25
63399;BME280;49533;-34.520;150.798;2023-05-24T07:56:00;101154.19;;;19.63;41.18
63399;BME280;49533;-34.520;150.798;2023-05-24T07:58:27;101279.16;;;20.39;41.12
63399;BME280;49533;-34.520;150.798;2023-05-24T08:00:54;101255.38;;;20.18;41.30
63399;BME280;49533;-34.520;150.798;2023-05-24T08:03:22;101193.66;;;19.79;41.33
63399;BME280;49533;-34.520;150.798;2023-05-24T08:05:51;101271.59;;;20.36;41.36
63399;BME280;49533;-34.520;150.798;2023-05-24T08:08:18;101252.69;;;20.22;41.20
63399;BME280;49533;-34.520;150.798;2023-05-24T08:10:45;101265.97;;;20.32;40.97
63399;BME280;49533;-34.520;150.798;2023-05-24T08:13:12;101138.81;;;19.46;40.85
63399;BME280;49533;-34.520;150.798;2023-05-24T08:15:40;101256.88;;;20.16;40.97
63399;BME280;49533;-34.520;150.798;2023-05-24T08:18:07;101268.81;;;20.20;41.02
63399;BME280;49533;-34.520;150.798;2023-05-24T08:20:34;101267.19;;;20.19;41.05
63399;BME280;49533;-34.520;150.798;2023-05-24T08:23:02;101251.34;;;20.16;41.10
63399;BME280;49533;-34.520;150.798;2023-05-24T08:25:29;101201.50;;;19.77;40.88
63399;BME280;49533;-34.520;150.798;2023-05-24T08:27:56;101255.88;;;20.08;40.40
63399;BME280;49533;-34.520;150.798;2023-05-24T08:30:23;101219.09;;;19.88;40.56
63399;BME280;49533;-34.520;150.798;2023-05-24T08:32:50;101245.13;;;20.03;40.71
63399;BME280;49533;-34.520;150.798;2023-05-24T08:35:18;101237.16;;;19.86;40.56
63399;BME280;49533;-34.520;150.798;2023-05-24T08:37:45;101270.03;;;20.07;40.45
63399;BME280;49533;-34.520;150.798;2023-05-24T08:40:13;101289.69;;;20.05;40.38
63399;BME280;49533;-34.520;150.798;2023-05-24T08:42:40;101265.34;;;19.79;40.61
63399;BME280;49533;-34.520;150.798;2023-05-24T08:45:10;101308.47;;;20.00;40.62
63399;BME280;49533;-34.520;150.798;2023-05-24T08:47:39;101289.09;;;19.84;40.70
63399;BME280;49533;-34.520;150.798;2023-05-24T08:50:08;101304.59;;;19.88;41.07
63399;BME280;49533;-34.520;150.798;2023-05-24T08:52:36;101315.16;;;19.86;41.07
63399;BME280;49533;-34.520;150.798;2023-05-24T08:55:05;101264.50;;;19.50;40.86
63399;BME280;49533;-34.520;150.798;2023-05-24T08:57:35;101286.06;;;19.61;40.96
63399;BME280;49533;-34.520;150.798;2023-05-24T09:00:08;101306.72;;;19.79;41.25
63399;BME280;49533;-34.520;150.798;2023-05-24T09:02:38;101291.81;;;19.68;41.04
63399;BME280;49533;-34.520;150.798;2023-05-24T09:05:10;101296.53;;;19.67;40.83
63399;BME280;49533;-34.520;150.798;2023-05-24T09:07:37;101309.34;;;19.75;40.98
63399;BME280;49533;-34.520;150.798;2023-05-24T09:10:07;101282.66;;;19.51;40.97
63399;BME280;49533;-34.520;150.798;2023-05-24T09:12:37;101268.75;;;19.48;41.05
63399;BME280;49533;-34.520;150.798;2023-05-24T09:15:05;101269.13;;;19.46;41.03
63399;BME280;49533;-34.520;150.798;2023-05-24T09:17:35;101296.19;;;19.57;41.12
63399;BME280;49533;-34.520;150.798;2023-05-24T09:20:03;101307.22;;;19.69;41.14
63399;BME280;49533;-34.520;150.798;2023-05-24T09:22:32;101313.06;;;19.67;41.17
63399;BME280;49533;-34.520;150.798;2023-05-24T09:25:00;101272.91;;;19.42;41.23
63399;BME280;49533;-34.520;150.798;2023-05-24T09:27:30;101254.47;;;19.30;41.18
63399;BME280;49533;-34.520;150.798;2023-05-24T09:29:57;101267.66;;;19.37;41.35
63399;BME280;49533;-34.520;150.798;2023-05-24T09:32:25;101299.84;;;19.61;41.35
63399;BME280;49533;-34.520;150.798;2023-05-24T09:34:56;101311.22;;;19.59;41.24
63399;BME280;49533;-34.520;150.798;2023-05-24T09:37:25;101305.59;;;19.55;41.16
63399;BME280;49533;-34.520;150.798;2023-05-24T09:39:53;101275.59;;;19.38;41.48
63399;BME280;49533;-34.520;150.798;2023-05-24T09:42:23;101292.44;;;19.49;41.47
63399;BME280;49533;-34.520;150.798;2023-05-24T09:45:03;101213.69;;;18.95;41.46
63399;BME280;49533;-34.520;150.798;2023-05-24T09:47:35;101278.22;;;19.34;41.55
63399;BME280;49533;-34.520;150.798;2023-05-24T09:50:04;101294.16;;;19.41;41.45
63399;BME280;49533;-34.520;150.798;2023-05-24T09:52:36;101269.31;;;19.25;41.41
63399;BME280;49533;-34.520;150.798;2023-05-24T09:55:15;101196.97;;;18.76;41.46
63399;BME280;49533;-34.520;150.798;2023-05-24T09:57:43;101280.06;;;19.30;41.52
63399;BME280;49533;-34.520;150.798;2023-05-24T10:00:11;101281.13;;;19.26;41.30
63399;BME280;49533;-34.520;150.798;2023-05-24T10:02:43;101219.31;;;18.86;41.36
63399;BME280;49533;-34.520;150.798;2023-05-24T10:05:11;101285.59;;;19.18;41.74
63399;BME280;49533;-34.520;150.798;2023-05-24T10:07:39;101206.13;;;18.67;41.53
63399;BME280;49533;-34.520;150.798;2023-05-24T10:10:08;101222.41;;;18.73;41.48
63399;BME280;49533;-34.520;150.798;2023-05-24T10:12:36;101282.16;;;19.09;41.44
63399;BME280;49533;-34.520;150.798;2023-05-24T10:15:09;101286.78;;;19.05;41.10
63399;BME280;49533;-34.520;150.798;2023-05-24T10:17:37;101278.84;;;19.03;41.19
63399;BME280;49533;-34.520;150.798;2023-05-24T10:20:05;101281.13;;;19.01;41.05
63399;BME280;49533;-34.520;150.798;2023-05-24T10:22:35;101210.72;;;18.51;40.96
63399;BME280;49533;-34.520;150.798;2023-05-24T10:25:05;101231.91;;;18.63;40.93
63399;BME280;49533;-34.520;150.798;2023-05-24T10:27:34;101204.44;;;18.38;40.58
63399;BME280;49533;-34.520;150.798;2023-05-24T10:30:13;101288.97;;;18.87;40.77
63399;BME280;49533;-34.520;150.798;2023-05-24T10:32:44;101285.75;;;18.85;40.57
63399;BME280;49533;-34.520;150.798;2023-05-24T10:35:15;101281.03;;;18.85;40.69
63399;BME280;49533;-34.520;150.798;2023-05-24T10:37:46;101269.44;;;18.67;40.47
63399;BME280;49533;-34.520;150.798;2023-05-24T10:40:17;101280.00;;;18.78;40.52
63399;BME280;49533;-34.520;150.798;2023-05-24T10:42:46;101276.78;;;18.76;40.43
63399;BME280;49533;-34.520;150.798;2023-05-24T10:45:35;101274.38;;;18.74;40.41
63399;BME280;49533;-34.520;150.798;2023-05-24T10:50:54;101206.91;;;18.19;40.15
63399;BME280;49533;-34.520;150.798;2023-05-24T10:53:24;101279.06;;;18.61;40.07
63399;BME280;49533;-34.520;150.798;2023-05-24T10:55:59;101205.31;;;18.06;40.16
63399;BME280;49533;-34.520;150.798;2023-05-24T10:58:27;101277.91;;;18.62;40.06
63399;BME280;49533;-34.520;150.798;2023-05-24T11:01:14;101290.31;;;18.56;39.51
63399;BME280;49533;-34.520;150.798;2023-05-24T11:03:52;101278.13;;;18.45;39.85
63399;BME280;49533;-34.520;150.798;2023-05-24T11:06:21;101263.06;;;18.30;39.68
63399;BME280;49533;-34.520;150.798;2023-05-24T11:09:08;101286.13;;;18.38;39.74
63399;BME280;49533;-34.520;150.798;2023-05-24T11:11:37;101251.03;;;18.10;39.60
63399;BME280;49533;-34.520;150.798;2023-05-24T11:14:05;101295.66;;;18.40;39.66
63399;BME280;49533;-34.520;150.798;2023-05-24T11:16:35;101282.00;;;18.32;39.30
63399;BME280;49533;-34.520;150.798;2023-05-24T11:19:19;101227.50;;;18.00;39.18
63399;BME280;49533;-34.520;150.798;2023-05-24T11:21:48;101298.28;;;18.37;38.93
63399;BME280;49533;-34.520;150.798;2023-05-24T11:24:16;101289.94;;;18.33;38.76
63399;BME280;49533;-34.520;150.798;2023-05-24T11:26:44;101162.88;;;17.61;39.01
63399;BME280;49533;-34.520;150.798;2023-05-24T11:29:13;101125.25;;;17.28;38.85
63399;BME280;49533;-34.520;150.798;2023-05-24T11:31:47;101134.88;;;17.34;38.84
63399;BME280;49533;-34.520;150.798;2023-05-24T11:34:16;101255.91;;;18.04;38.91
63399;BME280;49533;-34.520;150.798;2023-05-24T11:36:44;101285.66;;;18.23;38.81
63399;BME280;49533;-34.520;150.798;2023-05-24T11:39:13;101240.00;;;17.98;38.62
63399;BME280;49533;-34.520;150.798;2023-05-24T11:41:41;101241.34;;;17.92;38.57
63399;BME280;49533;-34.520;150.798;2023-05-24T11:44:10;101279.22;;;18.19;38.29
63399;BME280;49533;-34.520;150.798;2023-05-24T11:46:39;101235.19;;;17.95;38.28
63399;BME280;49533;-34.520;150.798;2023-05-24T11:49:12;101279.44;;;18.14;39.08
63399;BME280;49533;-34.520;150.798;2023-05-24T11:51:40;101287.00;;;18.17;39.01
63399;BME280;49533;-34.520;150.798;2023-05-24T11:54:07;101238.38;;;17.85;38.95
63399;BME280;49533;-34.520;150.798;2023-05-24T11:56:35;101269.78;;;17.96;38.53
63399;BME280;49533;-34.520;150.798;2023-05-24T11:59:16;101274.84;;;18.06;38.80
63399;BME280;49533;-34.520;150.798;2023-05-24T12:01:45;101279.06;;;18.03;38.66
63399;BME280;49533;-34.520;150.798;2023-05-24T12:04:12;101267.97;;;18.00;38.75
63399;BME280;49533;-34.520;150.798;2023-05-24T12:06:41;101228.41;;;17.71;39.11
63399;BME280;49533;-34.520;150.798;2023-05-24T12:09:10;101210.53;;;17.65;38.89
63399;BME280;49533;-34.520;150.798;2023-05-24T12:11:41;101202.72;;;17.55;39.01
63399;BME280;49533;-34.520;150.798;2023-05-24T12:14:13;101247.63;;;17.80;39.05
63399;BME280;49533;-34.520;150.798;2023-05-24T12:16:43;101242.13;;;17.80;39.16
63399;BME280;49533;-34.520;150.798;2023-05-24T12:19:18;101228.63;;;17.66;39.38
63399;BME280;49533;-34.520;150.798;2023-05-24T12:21:47;101248.88;;;17.83;39.42
63399;BME280;49533;-34.520;150.798;2023-05-24T12:24:16;101235.84;;;17.71;39.19
63399;BME280;49533;-34.520;150.798;2023-05-24T12:26:46;101236.63;;;17.80;39.48
63399;BME280;49533;-34.520;150.798;2023-05-24T12:29:15;101187.38;;;17.54;39.37
63399;BME280;49533;-34.520;150.798;2023-05-24T12:31:48;101180.25;;;17.53;39.36
63399;BME280;49533;-34.520;150.798;2023-05-24T12:34:17;101177.25;;;17.46;39.34
63399;BME280;49533;-34.520;150.798;2023-05-24T12:36:45;101201.81;;;17.63;39.03
63399;BME280;49533;-34.520;150.798;2023-05-24T12:39:20;101122.19;;;17.09;39.22
63399;BME280;49533;-34.520;150.798;2023-05-24T12:41:53;101165.31;;;17.29;39.38